Time,TemperatureF,DewpointF,PressureIn,WindDirection,WindDirectionDegrees,WindSpeedMPH,WindSpeedGustMPH,Humidity,HourlyPrecipIn,Conditions,Clouds,dailyrainin,SoftwareType,DateUTC
2013-01-31 13:03:00,51.0,-99.9,30.51,North,-999,-999.0,-999.0,-999,-99.99,,,-99.99,,2013-01-31 20:03:00,
2013-01-31 13:12:00,51.0,-99.9,30.51,North,-999,-999.0,-999.0,-999,-99.99,,,-99.99,,2013-01-31 20:12:00,
2013-01-31 13:21:00,51.0,18.0,30.50,East,86,2.0,-999.0,27,-99.99,,,-99.99,,2013-01-31 20:21:00,
2013-01-31 13:31:00,51.0,18.0,30.49,East,86,5.0,-999.0,27,-99.99,,,-99.99,,2013-01-31 20:31:00,
2013-01-31 13:41:00,51.0,18.0,30.49,North,-999,-999.0,-999.0,27,-99.99,,,-99.99,,2013-01-31 20:41:00,
2013-01-31 13:52:00,51.0,18.0,30.49,North,-999,-999.0,-999.0,27,-99.99,,,-99.99,,2013-01-31 20:52:00,
2013-01-31 14:01:00,53.0,20.0,30.49,North,-999,-999.0,-999.0,27,-99.99,,,-99.99,,2013-01-31 21:01:00,
2013-01-31 14:11:00,53.0,22.0,30.48,North,-999,-999.0,-999.0,29,-99.99,,,-99.99,,2013-01-31 21:11:00,
2013-01-31 14:21:00,53.0,22.0,30.48,North,-999,-999.0,-999.0,29,-99.99,,,-99.99,,2013-01-31 21:21:00,
2013-01-31 17:22:00,54.0,-99.9,30.47,North,-999,-999.0,-999.0,-999,-99.99,,,-99.99,,2013-02-01 00:22:00,
2013-01-31 17:31:00,53.0,23.0,30.47,North,357,1.0,-999.0,31,-99.99,,,-99.99,,2013-02-01 00:31:00,
2013-01-31 17:42:00,53.0,23.0,30.47,North,357,1.0,-999.0,31,-99.99,,,-99.99,,2013-02-01 00:42:00,
2013-01-31 17:51:00,52.0,24.0,30.48,North,359,1.0,-999.0,33,-99.99,,,-99.99,,2013-02-01 00:51:00,
2013-01-31 18:01:00,51.0,23.0,30.47,North,359,0.0,-999.0,33,-99.99,,,-99.99,,2013-02-01 01:01:00,
2013-01-31 18:11:00,48.0,20.0,30.47,North,359,0.0,-999.0,33,-99.99,,,-99.99,,2013-02-01 01:11:00,
2013-01-31 18:21:00,48.0,20.0,30.47,North,359,0.0,-999.0,33,-99.99,,,-99.99,,2013-02-01 01:21:00,
2013-01-31 18:31:00,44.0,25.0,30.48,North,359,1.0,-999.0,47,-99.99,,,-99.99,,2013-02-01 01:31:00,
2013-01-31 18:41:00,44.0,25.0,30.48,North,359,1.0,-999.0,47,-99.99,,,-99.99,,2013-02-01 01:41:00,
2013-01-31 18:52:00,43.0,24.0,30.48,North,357,3.0,-999.0,47,-99.99,,,-99.99,,2013-02-01 01:52:00,
2013-01-31 19:01:00,44.0,23.0,30.47,North,349,2.0,-999.0,44,-99.99,,,-99.99,,2013-02-01 02:01:00,
2013-01-31 19:11:00,44.0,23.0,30.47,North,349,2.0,-999.0,44,-99.99,,,-99.99,,2013-02-01 02:11:00,
2013-01-31 19:21:00,43.0,24.0,30.48,North,349,1.0,-999.0,47,-99.99,,,-99.99,,2013-02-01 02:21:00,
2013-01-31 19:31:00,43.0,25.0,30.50,North,349,3.0,-999.0,49,-99.99,,,-99.99,,2013-02-01 02:31:00,
2013-01-31 19:41:00,43.0,25.0,30.50,North,349,3.0,-999.0,49,-99.99,,,-99.99,,2013-02-01 02:41:00,
2013-01-31 19:52:00,43.0,25.0,30.50,North,-999,-999.0,-999.0,49,-99.99,,,-99.99,,2013-02-01 02:52:00,
2013-01-31 20:01:00,43.0,25.0,30.50,NNW,347,3.0,-999.0,49,-99.99,,,-99.99,,2013-02-01 03:01:00,
2013-01-31 20:11:00,43.0,25.0,30.50,NNW,347,3.0,-999.0,49,-99.99,,,-99.99,,2013-02-01 03:11:00,
2013-01-31 20:21:00,43.0,25.0,30.51,North,-999,-999.0,-999.0,49,-99.99,,,-99.99,,2013-02-01 03:21:00,